createdAt,value
2022-12-26T00:02:01.845Z,98840.28
2022-12-26T00:04:52.096Z,98836.34
2022-12-26T00:07:20.900Z,98824.22
2022-12-26T00:09:50.708Z,98827.00
2022-12-26T00:12:20.287Z,98824.78
2022-12-26T00:14:52.691Z,98826.19
2022-12-26T00:17:22.230Z,98828.19
2022-12-26T00:19:51.840Z,98815.53
2022-12-26T00:22:21.387Z,98824.38
2022-12-26T00:24:51.011Z,98828.19
2022-12-26T00:27:20.558Z,98822.28
2022-12-26T00:29:53.458Z,98833.38
2022-12-26T00:32:23.054Z,98830.19
2022-12-26T00:34:52.591Z,98841.13
2022-12-26T00:37:22.122Z,98829.63
2022-12-26T00:39:51.738Z,98842.63
2022-12-26T00:42:21.286Z,98845.38
2022-12-26T00:44:53.734Z,98843.25
2022-12-26T00:47:23.284Z,98843.25
2022-12-26T00:50:13.195Z,98837.78
2022-12-26T00:52:42.480Z,98832.84
2022-12-26T00:55:12.849Z,98837.22
2022-12-26T00:57:42.408Z,98835.16
2022-12-26T01:00:16.541Z,98846.94
2022-12-26T01:02:46.197Z,98844.50
2022-12-26T01:05:15.800Z,98853.16
2022-12-26T01:08:19.517Z,98854.19
2022-12-26T01:10:35.042Z,98862.97
2022-12-26T01:13:05.006Z,98860.81
2022-12-26T01:15:37.123Z,98860.25
2022-12-26T01:18:08.485Z,98860.53
2022-12-26T01:20:38.012Z,98856.38
2022-12-26T01:23:07.553Z,98853.56
2022-12-26T01:25:37.110Z,98851.84
2022-12-26T01:28:26.764Z,98856.03
2022-12-26T01:30:58.894Z,98872.72
2022-12-26T01:33:28.437Z,98868.72
2022-12-26T01:35:57.956Z,98875.81
2022-12-26T01:38:27.890Z,98887.34
2022-12-26T01:41:09.793Z,98894.81
2022-12-26T01:44:04.268Z,98894.44
2022-12-26T01:46:41.834Z,98902.72
2022-12-26T01:49:16.633Z,98909.25
2022-12-26T01:51:50.939Z,98909.22
2022-12-26T01:54:39.366Z,98912.56
2022-12-26T01:57:18.748Z,98909.28
2022-12-26T01:59:50.202Z,98911.75
2022-12-26T02:02:23.961Z,98904.38
2022-12-26T02:05:07.475Z,98900.53
2022-12-26T02:07:37.893Z,98903.34
2022-12-26T02:10:10.448Z,98923.28
2022-12-26T02:12:41.127Z,98918.63
2022-12-26T02:15:15.079Z,98912.00
2022-12-26T02:17:47.607Z,98895.06
2022-12-26T02:20:22.828Z,98895.94
2022-12-26T02:23:41.625Z,98912.16
2022-12-26T02:26:39.523Z,98915.44
2022-12-26T02:29:39.228Z,98933.50
2022-12-26T02:32:16.952Z,98931.88
2022-12-26T02:34:56.192Z,98923.69
2022-12-26T02:37:39.344Z,98924.25
2022-12-26T02:40:26.492Z,98922.66
2022-12-26T02:43:00.790Z,98930.06
2022-12-26T02:45:49.931Z,98911.44
2022-12-26T02:48:30.730Z,98906.81
2022-12-26T02:51:26.455Z,98913.41
2022-12-26T02:54:21.677Z,98908.50
2022-12-26T02:57:08.569Z,98910.13
2022-12-26T02:59:59.229Z,98914.50
2022-12-26T03:02:45.907Z,98920.53
2022-12-26T03:05:36.979Z,98915.63
2022-12-26T03:08:22.094Z,98923.31
2022-12-26T03:11:07.103Z,98930.97
2022-12-26T03:13:39.510Z,98925.22
2022-12-26T03:16:25.891Z,98917.28
2022-12-26T03:19:00.552Z,98895.66
2022-12-26T03:21:38.881Z,98907.44
2022-12-26T03:24:13.594Z,98927.69
2022-12-26T03:26:47.704Z,98938.13
2022-12-26T03:29:32.610Z,98931.03
2022-12-26T03:32:03.211Z,98938.13
2022-12-26T03:34:32.871Z,98940.84
2022-12-26T03:37:47.696Z,98933.47
2022-12-26T03:40:44.751Z,98927.13
2022-12-26T03:43:38.712Z,98917.56
2022-12-26T03:46:31.820Z,98903.06
2022-12-26T03:49:24.878Z,98916.19
2022-12-26T03:52:14.223Z,98914.00
2022-12-26T03:55:06.323Z,98911.28
2022-12-26T03:57:56.375Z,98921.13
2022-12-26T04:00:39.259Z,98919.47
2022-12-26T04:03:26.513Z,98932.06
2022-12-26T04:06:11.233Z,98924.41
2022-12-26T04:09:00.708Z,98934.81
2022-12-26T04:11:52.556Z,98931.53
2022-12-26T04:14:48.668Z,98938.94
2022-12-26T04:17:41.344Z,98943.53
2022-12-26T04:20:16.981Z,98963.53
2022-12-26T04:23:05.062Z,98957.66
2022-12-26T04:25:51.834Z,98946.41
2022-12-26T04:28:37.945Z,98928.16
2022-12-26T04:31:24.575Z,98940.25
2022-12-26T04:34:11.731Z,98951.19
2022-12-26T04:36:59.231Z,98939.41
2022-12-26T04:39:46.392Z,98950.63
2022-12-26T04:42:29.378Z,98956.09
2022-12-26T04:45:02.278Z,98946.78
2022-12-26T04:47:33.615Z,98954.72
2022-12-26T04:50:15.497Z,98952.22
2022-12-26T04:52:57.862Z,98955.78
2022-12-26T04:55:28.134Z,98954.47
2022-12-26T04:57:57.748Z,98958.28
2022-12-26T05:00:31.153Z,98956.63
2022-12-26T05:03:18.258Z,98956.06
2022-12-26T05:06:09.660Z,98958.00
2022-12-26T05:08:54.687Z,98958.81
2022-12-26T05:11:24.418Z,98969.78
2022-12-26T05:13:54.892Z,98969.25
2022-12-26T05:16:41.145Z,98972.22
2022-12-26T05:19:25.724Z,98965.91
2022-12-26T05:22:08.304Z,98957.69
2022-12-26T05:24:54.560Z,98969.16
2022-12-26T05:27:36.621Z,98973.25
2022-12-26T05:30:06.591Z,98980.88
2022-12-26T05:32:51.247Z,98977.09
2022-12-26T05:35:21.127Z,98980.63
2022-12-26T05:37:50.707Z,98974.03
2022-12-26T05:40:20.227Z,98986.44
2022-12-26T05:42:49.742Z,99005.31
2022-12-26T05:45:19.286Z,99016.06
2022-12-26T05:47:52.199Z,99000.19
2022-12-26T05:50:21.963Z,99019.34
2022-12-26T05:52:51.534Z,99010.31
2022-12-26T05:55:21.142Z,99004.84
2022-12-26T05:57:50.663Z,99006.47
2022-12-26T06:00:20.704Z,99019.34
2022-12-26T06:02:54.078Z,99035.50
2022-12-26T06:05:23.827Z,99030.59
2022-12-26T06:07:53.379Z,99024.00
2022-12-26T06:10:23.042Z,99035.50
2022-12-26T06:12:52.545Z,99040.72
2022-12-26T06:15:22.084Z,99039.91
2022-12-26T06:17:54.209Z,99043.72
2022-12-26T06:20:23.777Z,99050.84
2022-12-26T06:22:53.313Z,99054.13
2022-12-26T06:25:23.000Z,99062.31
2022-12-26T06:27:52.641Z,99069.44
2022-12-26T06:30:22.223Z,99074.94
2022-12-26T06:32:54.416Z,99073.81
2022-12-26T06:35:23.980Z,99076.56
2022-12-26T06:37:54.448Z,99084.22
2022-12-26T06:40:23.980Z,99078.22
2022-12-26T06:42:53.574Z,99064.53
2022-12-26T06:45:23.184Z,99065.34
2022-12-26T06:47:55.532Z,99054.69
2022-12-26T06:50:25.082Z,99050.03
2022-12-26T06:52:54.634Z,99045.38
2022-12-26T06:55:24.160Z,99039.88
2022-12-26T06:57:55.026Z,99036.59
2022-12-26T07:00:25.234Z,99031.94
2022-12-26T07:02:57.615Z,99028.38
2022-12-26T07:05:27.175Z,99043.16
2022-12-26T07:07:56.766Z,99033.56
2022-12-26T07:10:26.418Z,99046.44
2022-12-26T07:12:56.123Z,99050.81
2022-12-26T07:15:25.727Z,99058.47
2022-12-26T07:17:58.394Z,99045.63
2022-12-26T07:20:27.939Z,99056.56
2022-12-26T07:22:57.651Z,99046.13
2022-12-26T07:25:27.234Z,99039.28
2022-12-26T07:27:57.032Z,99036.59
2022-12-26T07:30:26.694Z,99045.34
2022-12-26T07:32:58.843Z,99036.06
2022-12-26T07:35:28.463Z,99041.53
2022-12-26T07:37:58.084Z,99035.50
2022-12-26T07:40:29.422Z,99042.66
2022-12-26T07:42:59.077Z,99034.69
2022-12-26T07:45:28.659Z,99045.38
2022-12-26T07:48:02.088Z,99042.66
2022-12-26T07:50:31.940Z,99053.59
2022-12-26T07:53:02.493Z,99057.97
2022-12-26T07:55:32.063Z,99065.63
2022-12-26T07:58:02.032Z,99073.56
2022-12-26T08:00:31.726Z,99067.81
2022-12-26T08:03:07.679Z,99076.56
2022-12-26T08:05:37.996Z,99078.19
2022-12-26T08:08:07.682Z,99071.13
2022-12-26T08:10:37.287Z,99077.94
2022-12-26T08:13:06.854Z,99080.69
2022-12-26T08:15:36.489Z,99080.97
2022-12-26T08:18:08.976Z,99086.44
2022-12-26T08:20:39.509Z,99076.59
2022-12-26T08:23:09.052Z,99084.22
2022-12-26T08:25:38.606Z,99077.66
2022-12-26T08:28:08.135Z,99076.56
2022-12-26T08:30:38.101Z,99083.69
2022-12-26T08:33:10.707Z,99078.47
2022-12-26T08:35:41.906Z,99082.03
2022-12-26T08:38:11.559Z,99075.22
2022-12-26T08:40:43.933Z,99083.13
2022-12-26T08:46:05.561Z,99087.50
2022-12-26T08:48:39.089Z,99082.84
2022-12-26T08:51:11.297Z,99090.25
2022-12-26T08:53:41.041Z,99096.31
2022-12-26T08:56:16.276Z,99093.28
2022-12-26T08:58:46.672Z,99108.06
2022-12-26T09:01:18.698Z,99104.22
2022-12-26T09:03:51.124Z,99106.13
2022-12-26T09:06:20.789Z,99109.41
2022-12-26T09:08:50.524Z,99094.66
2022-12-26T09:11:22.088Z,99107.78
2022-12-26T09:13:52.327Z,99123.66
2022-12-26T09:16:23.651Z,99135.69
2022-12-26T09:19:01.380Z,99122.25
2022-12-26T09:21:32.173Z,99119.81
2022-12-26T09:24:03.143Z,99114.31
2022-12-26T09:26:33.448Z,99108.84
2022-12-26T09:29:03.391Z,99111.06
2022-12-26T09:31:34.547Z,99113.25
2022-12-26T09:34:08.973Z,99112.72
2022-12-26T09:36:40.770Z,99111.34
2022-12-26T09:39:11.326Z,99111.91
2022-12-26T09:42:04.013Z,99106.69
2022-12-26T09:44:46.063Z,99106.97
2022-12-26T09:47:29.928Z,99120.38
2022-12-26T09:50:06.715Z,99111.63
2022-12-26T09:52:43.379Z,99108.31
2022-12-26T09:55:32.998Z,99096.25
2022-12-26T09:58:07.331Z,99099.03
2022-12-26T10:00:45.392Z,99111.06
2022-12-26T10:03:15.161Z,99104.75
2022-12-26T10:06:00.571Z,99122.59
2022-12-26T10:08:39.082Z,99126.09
2022-12-26T10:11:14.095Z,99120.66
2022-12-26T10:13:50.939Z,99127.50
2022-12-26T10:16:27.782Z,99121.72
2022-12-26T10:19:04.535Z,99122.59
2022-12-26T10:21:52.610Z,99131.34
2022-12-26T10:24:26.291Z,99123.41
2022-12-26T10:27:02.558Z,99119.28
2022-12-26T10:29:37.015Z,99099.56
2022-12-26T10:32:10.506Z,99093.28
2022-12-26T10:34:44.040Z,99105.03
2022-12-26T10:37:25.688Z,99116.53
2022-12-26T10:40:00.627Z,99109.94
2022-12-26T10:42:33.888Z,99101.19
2022-12-26T10:45:04.376Z,99114.59
2022-12-26T10:47:40.351Z,99108.28
2022-12-26T10:50:16.782Z,99094.22
2022-12-26T10:52:49.223Z,99105.56
2022-12-26T10:55:28.492Z,99116.84
2022-12-26T10:58:04.302Z,99113.66
2022-12-26T11:00:34.024Z,99112.47
2022-12-26T11:03:09.756Z,99118.72
2022-12-26T11:08:43.187Z,99129.13
2022-12-26T11:11:16.447Z,99122.75
2022-12-26T11:13:52.611Z,99111.63
2022-12-26T11:16:28.479Z,99115.44
2022-12-26T11:18:58.383Z,99112.72
2022-12-26T11:21:30.063Z,99114.91
2022-12-26T11:24:22.415Z,99107.78
2022-12-26T11:26:51.981Z,99095.72
2022-12-26T11:29:24.128Z,99095.44
2022-12-26T11:31:56.959Z,99093.00
2022-12-26T11:34:34.538Z,99095.72
2022-12-26T11:37:05.922Z,99096.00
2022-12-26T11:39:40.715Z,99096.25
2022-12-26T11:42:15.546Z,99095.72
2022-12-26T11:44:49.405Z,99088.06
2022-12-26T11:47:21.911Z,99087.25
2022-12-26T11:49:57.191Z,99094.38
2022-12-26T11:52:37.711Z,99086.69
2022-12-26T11:55:29.737Z,99091.34
2022-12-26T11:58:01.862Z,99087.50
2022-12-26T12:00:32.485Z,99081.50
2022-12-26T12:03:02.159Z,99072.72
2022-12-26T12:05:45.067Z,99068.34
2022-12-26T12:08:40.262Z,99062.88
2022-12-26T12:11:27.985Z,99051.09
2022-12-26T12:14:11.842Z,99053.00
2022-12-26T12:16:52.165Z,99042.06
2022-12-26T12:19:30.650Z,99046.97
2022-12-26T12:22:14.601Z,99043.16
2022-12-26T12:24:59.921Z,99050.50
2022-12-26T12:27:36.083Z,99063.69
2022-12-26T12:30:21.626Z,99071.66
2022-12-26T12:33:09.905Z,99069.44
2022-12-26T12:35:51.410Z,99068.84
2022-12-26T12:38:32.479Z,99066.41
2022-12-26T12:41:30.130Z,99067.41
2022-12-26T12:44:07.787Z,99080.59
2022-12-26T12:46:52.773Z,99074.25
2022-12-26T12:49:40.076Z,99082.00
2022-12-26T12:52:20.465Z,99067.75
2022-12-26T12:55:30.186Z,99057.41
2022-12-26T12:58:07.328Z,99066.13
2022-12-26T13:00:45.054Z,99050.56
2022-12-26T13:03:25.425Z,99059.59
2022-12-26T13:06:02.353Z,99055.47
2022-12-26T13:08:38.210Z,99049.75
2022-12-26T13:11:09.533Z,99061.50
2022-12-26T13:13:48.534Z,99061.22
2022-12-26T13:16:27.901Z,99055.47
2022-12-26T13:19:01.379Z,99064.50
2022-12-26T13:21:33.878Z,99065.63
2022-12-26T13:24:21.717Z,99057.09
2022-12-26T13:26:58.423Z,99064.50
2022-12-26T13:29:37.554Z,99066.41
2022-12-26T13:32:22.490Z,99067.25
2022-12-26T13:34:53.445Z,99064.25
2022-12-26T13:37:59.083Z,99070.28
2022-12-26T13:40:32.441Z,99053.03
2022-12-26T13:43:18.495Z,99052.50
2022-12-26T13:45:55.325Z,99035.25
2022-12-26T13:48:56.632Z,99033.03
2022-12-26T13:51:46.051Z,99039.59
2022-12-26T13:54:17.751Z,99033.31
2022-12-26T13:57:18.275Z,99030.34
2022-12-26T13:59:58.913Z,99023.19
2022-12-26T14:03:17.336Z,99035.53
2022-12-26T14:06:02.357Z,99034.41
2022-12-26T14:08:43.603Z,99034.66
2022-12-26T14:11:30.092Z,99044.81
2022-12-26T14:14:11.122Z,99056.84
2022-12-26T14:16:49.169Z,99056.28
2022-12-26T14:19:32.136Z,99047.53
2022-12-26T14:22:14.682Z,99054.09
2022-12-26T14:24:57.493Z,99049.19
2022-12-26T14:27:37.692Z,99059.59
2022-12-26T14:30:33.961Z,99051.38
2022-12-26T14:33:24.163Z,99060.09
2022-12-26T14:36:04.091Z,99057.38
2022-12-26T14:38:46.651Z,99056.03
2022-12-26T14:41:31.052Z,99057.09
2022-12-26T14:44:13.241Z,99054.94
2022-12-26T14:47:02.331Z,99056.56
2022-12-26T14:49:45.574Z,99054.91
2022-12-26T14:52:45.153Z,99056.56
2022-12-26T14:55:44.616Z,99060.66
2022-12-26T14:58:31.514Z,99053.25
2022-12-26T15:01:37.086Z,99064.97
2022-12-26T15:04:14.151Z,99066.06
2022-12-26T15:07:01.656Z,99079.34
2022-12-26T15:10:02.626Z,99076.88
2022-12-26T15:13:22.780Z,99073.63
2022-12-26T15:16:22.336Z,99074.94
2022-12-26T15:19:11.239Z,99087.22
2022-12-26T15:22:11.153Z,99078.50
2022-12-26T15:25:20.315Z,99085.06
2022-12-26T15:28:30.029Z,99092.13
2022-12-26T15:31:24.136Z,99089.97
2022-12-26T15:34:00.835Z,99105.56
2022-12-26T15:36:39.228Z,99109.06
2022-12-26T15:39:24.104Z,99127.19
2022-12-26T15:42:04.126Z,99136.19
2022-12-26T15:44:46.035Z,99145.22
2022-12-26T15:47:32.227Z,99174.75
2022-12-26T15:50:13.309Z,99175.81
2022-12-26T15:52:51.747Z,99189.94
2022-12-26T15:55:39.125Z,99189.38
2022-12-26T15:58:19.880Z,99207.97
2022-12-26T16:00:53.069Z,99231.25
2022-12-26T16:03:35.708Z,99253.72
2022-12-26T16:06:35.331Z,99263.44
2022-12-26T16:09:30.021Z,99273.34
2022-12-26T16:12:02.263Z,99276.31
2022-12-26T16:14:34.675Z,99285.53
2022-12-26T16:17:22.237Z,99295.03
2022-12-26T16:19:55.448Z,99296.59
2022-12-26T16:22:45.401Z,99307.09
2022-12-26T16:25:17.771Z,99317.66
2022-12-26T16:27:48.549Z,99329.28
2022-12-26T16:30:21.511Z,99320.53
2022-12-26T16:32:51.450Z,99321.53
2022-12-26T16:35:27.995Z,99322.84
2022-12-26T16:38:00.709Z,99326.00
2022-12-26T16:40:32.724Z,99329.19
2022-12-26T16:43:05.138Z,99334.41
2022-12-26T16:45:37.445Z,99339.13
2022-12-26T16:48:09.171Z,99341.25
2022-12-26T16:50:48.845Z,99347.91
2022-12-26T16:53:20.469Z,99341.88
2022-12-26T16:55:52.430Z,99331.97
2022-12-26T16:58:25.871Z,99328.88
2022-12-26T17:01:10.757Z,99327.63
2022-12-26T17:03:46.731Z,99322.38
2022-12-26T17:06:25.922Z,99332.06
2022-12-26T17:08:56.147Z,99344.63
2022-12-26T17:11:32.215Z,99341.78
2022-12-26T17:14:03.363Z,99339.50
2022-12-26T17:16:34.537Z,99341.78
2022-12-26T17:19:13.673Z,99346.41
2022-12-26T17:22:05.773Z,99342.84
2022-12-26T17:24:40.288Z,99340.88
2022-12-26T17:27:17.752Z,99341.09
2022-12-26T17:29:59.386Z,99339.91
2022-12-26T17:32:39.769Z,99333.19
2022-12-26T17:35:15.733Z,99332.69
2022-12-26T17:37:45.740Z,99346.53
2022-12-26T17:40:28.929Z,99351.59
2022-12-26T17:43:09.648Z,99332.00
2022-12-26T17:45:46.818Z,99326.00
2022-12-26T17:48:17.170Z,99310.41
2022-12-26T17:50:49.616Z,99322.22
2022-12-26T17:53:30.408Z,99319.69
2022-12-26T17:56:06.027Z,99331.50
2022-12-26T17:58:36.259Z,99348.63
2022-12-26T18:01:06.343Z,99340.72
2022-12-26T18:03:36.151Z,99351.00
2022-12-26T18:06:06.636Z,99343.81
2022-12-26T18:08:38.140Z,99345.09
2022-12-26T18:11:13.076Z,99353.59
2022-12-26T18:13:43.231Z,99368.97
2022-12-26T18:16:17.380Z,99371.69
2022-12-26T18:18:49.157Z,99367.44
2022-12-26T18:21:19.525Z,99379.56
2022-12-26T18:23:49.238Z,99375.56
2022-12-26T18:26:26.052Z,99383.09
2022-12-26T18:28:57.176Z,99396.22
2022-12-26T18:31:28.055Z,99402.25
2022-12-26T18:33:58.492Z,99406.59
2022-12-26T18:36:34.050Z,99410.91
2022-12-26T18:39:04.207Z,99409.22
2022-12-26T18:41:36.474Z,99416.16
2022-12-26T18:44:06.159Z,99425.53
2022-12-26T18:46:37.958Z,99421.63
2022-12-26T18:49:07.687Z,99421.84
2022-12-26T18:51:39.560Z,99416.22
2022-12-26T18:54:09.166Z,99424.69
2022-12-26T18:56:41.376Z,99432.50
2022-12-26T18:59:13.708Z,99427.31
2022-12-26T19:01:43.506Z,99421.75
2022-12-26T19:04:16.146Z,99429.91
2022-12-26T19:06:46.107Z,99440.25
2022-12-26T19:09:17.291Z,99449.50
2022-12-26T19:11:49.538Z,99449.56
2022-12-26T19:14:21.769Z,99453.88
2022-12-26T19:16:51.652Z,99455.97
2022-12-26T19:19:21.312Z,99456.06
2022-12-26T19:21:51.009Z,99459.41
2022-12-26T19:24:20.632Z,99465.03
2022-12-26T19:26:53.021Z,99464.88
2022-12-26T19:29:22.738Z,99475.50
2022-12-26T19:31:52.426Z,99471.06
2022-12-26T19:34:23.320Z,99461.16
2022-12-26T19:36:55.813Z,99468.38
2022-12-26T19:39:25.441Z,99468.38
2022-12-26T19:41:57.698Z,99474.72
2022-12-26T19:44:30.079Z,99475.19
2022-12-26T19:47:12.759Z,99474.28
2022-12-26T19:49:42.770Z,99476.41
2022-12-26T19:52:12.970Z,99479.50
2022-12-26T19:54:42.649Z,99487.84
2022-12-26T19:57:14.917Z,99485.28
2022-12-26T19:59:44.528Z,99491.31
2022-12-26T20:02:15.742Z,99486.50
2022-12-26T20:04:45.438Z,99483.03
2022-12-26T20:07:15.322Z,99484.84
2022-12-26T20:09:45.058Z,99504.28
2022-12-26T20:12:17.382Z,99504.56
2022-12-26T20:14:47.038Z,99513.78
2022-12-26T20:17:16.856Z,99510.00
2022-12-26T20:19:47.627Z,99509.69
2022-12-26T20:22:17.283Z,99512.81
2022-12-26T20:24:47.331Z,99519.28
2022-12-26T20:27:19.778Z,99524.63
2022-12-26T20:29:49.477Z,99529.34
2022-12-26T20:32:19.298Z,99536.91
2022-12-26T20:34:48.954Z,99533.53
2022-12-26T20:37:18.929Z,99543.16
2022-12-26T20:39:48.598Z,99538.88
2022-12-26T20:42:20.950Z,99545.19
2022-12-26T20:44:50.691Z,99546.03
2022-12-26T20:47:20.347Z,99549.66
2022-12-26T20:49:50.030Z,99545.13
2022-12-26T20:52:19.684Z,99550.84
2022-12-26T20:54:49.334Z,99562.28
2022-12-26T20:57:22.004Z,99562.16
2022-12-26T20:59:51.789Z,99553.94
2022-12-26T21:02:21.653Z,99568.19
2022-12-26T21:04:51.573Z,99572.09
2022-12-26T21:07:21.276Z,99573.47
2022-12-26T21:09:50.965Z,99574.53
2022-12-26T21:12:23.427Z,99579.13
2022-12-26T21:14:53.132Z,99589.34
2022-12-26T21:17:22.817Z,99595.53
2022-12-26T21:19:52.458Z,99602.91
2022-12-26T21:22:23.639Z,99614.25
2022-12-26T21:24:53.287Z,99616.41
2022-12-26T21:27:25.606Z,99617.63
2022-12-26T21:29:55.316Z,99616.41
2022-12-26T21:32:24.970Z,99622.88
2022-12-26T21:34:54.641Z,99632.31
2022-12-26T21:37:36.875Z,99636.38
2022-12-26T21:40:07.687Z,99638.03
2022-12-26T21:42:39.998Z,99640.97
2022-12-26T21:45:11.195Z,99647.28
2022-12-26T21:47:40.967Z,99641.94
2022-12-26T21:50:11.572Z,99654.22
2022-12-26T21:52:41.205Z,99654.50
2022-12-26T21:55:25.155Z,99655.75
2022-12-26T21:57:58.556Z,99660.34
2022-12-26T22:00:28.690Z,99666.66
2022-12-26T22:03:10.955Z,99674.97
2022-12-26T22:05:42.036Z,99716.00
2022-12-26T22:08:13.123Z,99715.81
2022-12-26T22:10:59.211Z,99722.09
2022-12-26T22:13:32.329Z,99727.78
2022-12-26T22:16:07.944Z,99703.16
2022-12-26T22:18:38.805Z,99713.06
2022-12-26T22:21:11.087Z,99721.84
2022-12-26T22:23:41.603Z,99737.69
2022-12-26T22:26:13.472Z,99743.50
2022-12-26T22:28:46.338Z,99737.81
2022-12-26T22:31:21.545Z,99748.66
2022-12-26T22:33:56.273Z,99756.38
2022-12-26T22:36:25.955Z,99748.06
2022-12-26T22:38:55.917Z,99757.63
2022-12-26T22:41:25.613Z,99747.25
2022-12-26T22:43:58.289Z,99755.94
2022-12-26T22:46:28.326Z,99758.03
2022-12-26T22:48:58.092Z,99766.34
2022-12-26T22:51:28.943Z,99771.97
2022-12-26T22:53:59.868Z,99770.56
2022-12-26T22:56:30.365Z,99779.72
2022-12-26T22:59:03.162Z,99781.41
2022-12-26T23:01:33.648Z,99787.47
2022-12-26T23:04:04.102Z,99795.38
2022-12-26T23:06:37.196Z,99791.25
2022-12-26T23:09:09.188Z,99799.34
2022-12-26T23:11:39.482Z,99802.69
2022-12-26T23:14:15.534Z,99796.84
2022-12-26T23:16:49.486Z,99792.69
2022-12-26T23:19:41.747Z,99793.94
2022-12-26T23:22:12.060Z,99794.78
2022-12-26T23:24:41.743Z,99805.59
2022-12-26T23:27:24.431Z,99800.19
2022-12-26T23:30:09.954Z,99797.06
2022-12-26T23:32:40.271Z,99797.69
2022-12-26T23:35:12.564Z,99798.09
2022-12-26T23:37:43.183Z,99790.59
2022-12-26T23:40:16.223Z,99788.94
2022-12-26T23:42:46.120Z,99792.28
2022-12-26T23:45:18.605Z,99793.94
2022-12-26T23:47:49.527Z,99805.59
2022-12-26T23:50:19.622Z,99795.19
2022-12-26T23:52:49.653Z,99797.28
2022-12-26T23:55:19.464Z,99794.34
2022-12-26T23:57:49.362Z,99799.34
